createdAt,value
2019-04-29T00:00:00.471Z,101831.30
2019-04-29T00:02:36.496Z,101830.05
2019-04-29T00:05:06.285Z,101820.53
2019-04-29T00:07:34.989Z,101816.60
2019-04-29T00:10:05.048Z,101820.47
2019-04-29T00:12:34.348Z,101809.95
2019-04-29T00:15:14.503Z,101816.86
2019-04-29T00:17:53.226Z,101812.11
2019-04-29T00:20:31.538Z,101806.12
2019-04-29T00:23:01.147Z,101804.00
2019-04-29T00:25:30.447Z,101806.17
2019-04-29T00:27:59.435Z,101805.86
2019-04-29T00:30:28.323Z,101807.02
2019-04-29T00:32:57.224Z,101797.18
2019-04-29T00:35:26.790Z,101794.11
2019-04-29T00:38:14.811Z,101801.00
2019-04-29T00:41:02.813Z,101791.13
2019-04-29T00:43:42.488Z,101788.40
2019-04-29T00:46:12.187Z,101784.47
2019-04-29T00:48:41.138Z,101784.47
2019-04-29T00:51:10.167Z,101783.66
2019-04-29T00:53:39.963Z,101786.25
2019-04-29T00:56:14.283Z,101793.13
2019-04-29T00:58:43.172Z,101791.92
2019-04-29T01:01:15.387Z,101797.47
2019-04-29T01:03:44.020Z,101789.25
2019-04-29T01:06:12.730Z,101795.38
2019-04-29T01:08:41.707Z,101793.60
2019-04-29T01:11:10.323Z,101797.13
2019-04-29T01:13:39.387Z,101796.25
2019-04-29T01:16:08.383Z,101797.55
2019-04-29T01:18:37.581Z,101801.05
2019-04-29T01:21:06.575Z,101799.75
2019-04-29T01:23:35.202Z,101799.11
2019-04-29T01:26:16.131Z,101795.95
2019-04-29T01:28:49.604Z,101804.23
2019-04-29T01:31:27.025Z,101805.58
2019-04-29T01:34:00.368Z,101773.09
2019-04-29T01:36:38.223Z,101756.19
2019-04-29T01:39:09.750Z,101755.29
2019-04-29T01:41:51.041Z,101763.51
2019-04-29T01:44:19.765Z,101757.91
2019-04-29T01:46:48.636Z,101755.19
2019-04-29T01:49:17.295Z,101747.22
2019-04-29T01:51:45.926Z,101739.88
2019-04-29T01:54:15.516Z,101732.13
2019-04-29T01:56:45.118Z,101743.85
2019-04-29T01:59:13.746Z,101750.24
2019-04-29T02:01:43.008Z,101758.97
2019-04-29T02:04:11.630Z,101760.21
2019-04-29T02:06:40.600Z,101755.05
2019-04-29T02:09:13.453Z,101759.77
2019-04-29T02:11:42.121Z,101770.23
2019-04-29T02:14:11.191Z,101770.69
2019-04-29T02:16:39.764Z,101777.70
2019-04-29T02:19:08.430Z,101775.46
2019-04-29T02:21:37.311Z,101779.56
2019-04-29T02:24:14.805Z,101766.88
2019-04-29T02:26:43.441Z,101759.95
2019-04-29T02:29:12.385Z,101742.66
2019-04-29T02:31:43.029Z,101745.31
2019-04-29T02:34:12.007Z,101746.19
2019-04-29T02:36:41.002Z,101742.31
2019-04-29T02:39:28.941Z,101752.72
2019-04-29T02:42:16.060Z,101749.83
2019-04-29T02:44:44.671Z,101744.68
2019-04-29T02:47:13.339Z,101739.50
2019-04-29T02:49:42.411Z,101739.11
2019-04-29T02:52:11.037Z,101736.50
2019-04-29T02:54:39.718Z,101728.25
2019-04-29T02:57:27.747Z,101732.31
2019-04-29T03:00:01.265Z,101730.14
2019-04-29T03:02:44.876Z,101735.84
2019-04-29T03:05:39.795Z,101725.89
2019-04-29T03:08:06.487Z,101726.16
2019-04-29T03:10:35.111Z,101725.87
2019-04-29T03:13:04.096Z,101729.71
2019-04-29T03:15:34.991Z,101735.87
2019-04-29T03:18:04.027Z,101729.84
2019-04-29T03:20:52.120Z,101735.94
2019-04-29T03:23:22.192Z,101727.34
2019-04-29T03:25:50.886Z,101728.52
2019-04-29T03:28:19.600Z,101725.89
2019-04-29T03:30:48.964Z,101728.84
2019-04-29T03:33:17.611Z,101730.59
2019-04-29T03:35:46.274Z,101727.17
2019-04-29T03:38:15.534Z,101728.14
2019-04-29T03:40:44.533Z,101735.52
2019-04-29T03:43:13.501Z,101724.22
2019-04-29T03:45:42.721Z,101723.00
2019-04-29T03:48:11.736Z,101729.89
2019-04-29T03:50:40.707Z,101727.44
2019-04-29T03:53:09.706Z,101716.16
2019-04-29T03:55:40.492Z,101720.12
2019-04-29T03:58:08.733Z,101721.78
2019-04-29T04:00:37.745Z,101720.98
2019-04-29T04:03:16.275Z,101721.91
2019-04-29T04:06:07.335Z,101718.95
2019-04-29T04:08:39.715Z,101724.98
2019-04-29T04:11:08.705Z,101731.96
2019-04-29T04:13:37.716Z,101738.94
2019-04-29T04:16:08.338Z,101743.39
2019-04-29T04:18:37.354Z,101734.20
2019-04-29T04:21:06.416Z,101722.38
2019-04-29T04:23:35.447Z,101721.06
2019-04-29T04:26:04.077Z,101725.22
2019-04-29T04:28:32.990Z,101736.77
2019-04-29T04:31:06.254Z,101741.09
2019-04-29T04:33:32.714Z,101738.36
2019-04-29T04:36:01.497Z,101735.73
2019-04-29T04:38:30.483Z,101736.21
2019-04-29T04:41:03.373Z,101739.74
2019-04-29T04:43:32.379Z,101752.21
2019-04-29T04:46:01.114Z,101758.66
2019-04-29T04:48:30.363Z,101760.86
2019-04-29T04:50:59.362Z,101744.46
2019-04-29T04:53:28.087Z,101731.89
2019-04-29T04:55:59.480Z,101736.21
2019-04-29T04:58:28.387Z,101746.95
2019-04-29T05:00:57.380Z,101755.42
2019-04-29T05:03:27.653Z,101752.77
2019-04-29T05:05:56.494Z,101746.33
2019-04-29T05:08:25.171Z,101748.44
2019-04-29T05:10:53.807Z,101747.66
2019-04-29T05:13:28.377Z,101748.41
2019-04-29T05:15:53.394Z,101747.72
2019-04-29T05:18:22.287Z,101751.17
2019-04-29T05:20:51.279Z,101748.47
2019-04-29T05:23:20.267Z,101756.28
2019-04-29T05:25:49.157Z,101750.09
2019-04-29T05:28:17.796Z,101756.82
2019-04-29T05:30:46.738Z,101763.46
2019-04-29T05:33:15.718Z,101762.30
2019-04-29T05:36:03.741Z,101763.02
2019-04-29T05:38:42.105Z,101770.36
2019-04-29T05:41:11.483Z,101772.22
2019-04-29T05:43:46.405Z,101774.72
2019-04-29T05:46:27.813Z,101769.20
2019-04-29T05:48:56.803Z,101771.41
2019-04-29T05:51:43.783Z,101766.59
2019-04-29T05:54:13.445Z,101775.23
2019-04-29T05:56:42.147Z,101774.81
2019-04-29T05:59:12.900Z,101783.16
2019-04-29T06:01:42.795Z,101775.45
2019-04-29T06:04:16.250Z,101777.95
2019-04-29T06:06:42.455Z,101767.52
2019-04-29T06:09:11.509Z,101776.55
2019-04-29T06:11:41.810Z,101783.61
2019-04-29T06:14:10.699Z,101782.74
2019-04-29T06:16:39.322Z,101788.50
2019-04-29T06:19:08.296Z,101788.63
2019-04-29T06:21:36.929Z,101788.27
2019-04-29T06:24:06.467Z,101791.28
2019-04-29T06:26:35.647Z,101790.78
2019-04-29T06:29:06.087Z,101795.10
2019-04-29T06:31:35.289Z,101791.05
2019-04-29T06:34:05.333Z,101790.55
2019-04-29T06:36:34.711Z,101797.78
2019-04-29T06:39:06.166Z,101805.12
2019-04-29T06:41:34.797Z,101803.86
2019-04-29T06:44:06.677Z,101805.38
2019-04-29T06:46:34.576Z,101802.30
2019-04-29T06:49:10.559Z,101813.91
2019-04-29T06:51:34.209Z,101804.57
2019-04-29T06:54:02.881Z,101804.73
2019-04-29T06:56:31.784Z,101813.08
2019-04-29T06:59:00.785Z,101812.34
2019-04-29T07:01:33.108Z,101810.91
2019-04-29T07:04:01.408Z,101817.76
2019-04-29T07:06:30.120Z,101816.69
2019-04-29T07:08:59.104Z,101811.62
2019-04-29T07:11:31.892Z,101807.02
2019-04-29T07:13:59.333Z,101810.35
2019-04-29T07:16:31.942Z,101807.40
2019-04-29T07:18:59.258Z,101812.51
2019-04-29T07:21:28.167Z,101808.38
2019-04-29T07:23:57.063Z,101811.39
2019-04-29T07:26:25.958Z,101806.13
2019-04-29T07:28:55.627Z,101809.13
2019-04-29T07:31:28.146Z,101812.08
2019-04-29T07:33:57.906Z,101823.27
2019-04-29T07:36:26.329Z,101820.03
2019-04-29T07:38:56.609Z,101818.97
2019-04-29T07:41:25.851Z,101815.47
2019-04-29T07:43:54.463Z,101816.06
2019-04-29T07:46:56.066Z,101822.39
2019-04-29T07:49:17.318Z,101817.50
2019-04-29T07:51:46.511Z,101809.42
2019-04-29T07:54:16.374Z,101815.57
2019-04-29T07:56:45.958Z,101826.27
2019-04-29T07:59:14.655Z,101816.08
2019-04-29T08:01:43.631Z,101826.13
2019-04-29T08:04:12.313Z,101827.55
2019-04-29T08:06:43.047Z,101828.78
2019-04-29T08:09:12.016Z,101831.47
2019-04-29T08:11:41.445Z,101830.45
2019-04-29T08:14:10.053Z,101834.23
2019-04-29T08:16:38.665Z,101838.88
2019-04-29T08:19:07.896Z,101828.35
2019-04-29T08:21:36.887Z,101835.53
2019-04-29T08:24:05.646Z,101838.11
2019-04-29T08:26:38.167Z,101840.44
2019-04-29T08:29:05.413Z,101836.91
2019-04-29T08:31:34.313Z,101834.78
2019-04-29T08:34:03.297Z,101836.97
2019-04-29T08:36:32.553Z,101842.03
2019-04-29T08:39:08.370Z,101842.15
2019-04-29T08:41:32.115Z,101833.75
2019-04-29T08:44:18.983Z,101841.48
2019-04-29T08:47:12.848Z,101841.27
2019-04-29T08:49:41.797Z,101839.50
2019-04-29T08:52:10.435Z,101842.95
2019-04-29T08:54:39.374Z,101854.30
2019-04-29T08:57:08.262Z,101858.22
2019-04-29T08:59:37.367Z,101863.66
2019-04-29T09:02:10.198Z,101857.50
2019-04-29T09:04:37.003Z,101858.34
2019-04-29T09:07:12.492Z,101851.45
2019-04-29T09:09:36.608Z,101861.63
2019-04-29T09:12:05.305Z,101859.15
2019-04-29T09:14:33.945Z,101857.41
2019-04-29T09:17:06.119Z,101853.02
2019-04-29T09:19:33.207Z,101852.08
2019-04-29T09:22:04.225Z,101862.38
2019-04-29T09:24:33.153Z,101863.21
2019-04-29T09:27:09.649Z,101861.03
2019-04-29T09:29:39.530Z,101862.95
2019-04-29T09:32:08.231Z,101864.12
2019-04-29T09:34:36.927Z,101863.83
2019-04-29T09:37:05.639Z,101860.77
2019-04-29T09:39:43.261Z,101865.30
2019-04-29T09:42:32.450Z,101865.27
2019-04-29T09:45:24.156Z,101863.94
2019-04-29T09:47:50.816Z,101861.80
2019-04-29T09:50:19.527Z,101866.61
2019-04-29T09:52:48.131Z,101860.50
2019-04-29T09:55:18.783Z,101857.93
2019-04-29T09:57:48.011Z,101852.80
2019-04-29T10:00:51.193Z,101849.78
2019-04-29T10:03:31.537Z,101852.41
2019-04-29T10:06:08.357Z,101847.16
2019-04-29T10:08:36.999Z,101839.74
2019-04-29T10:11:06.795Z,101841.44
2019-04-29T10:13:35.450Z,101831.80
2019-04-29T10:16:14.919Z,101841.44
2019-04-29T10:18:52.156Z,101840.02
2019-04-29T10:21:23.004Z,101838.58
2019-04-29T10:23:51.768Z,101838.31
2019-04-29T10:26:20.781Z,101839.00
2019-04-29T10:28:54.947Z,101839.06
2019-04-29T10:31:23.987Z,101830.17
2019-04-29T10:33:55.119Z,101837.89
2019-04-29T10:36:26.085Z,101831.26
2019-04-29T10:38:55.499Z,101838.05
2019-04-29T10:41:32.045Z,101830.50
2019-04-29T10:44:16.669Z,101833.52
2019-04-29T10:47:04.184Z,101837.71
2019-04-29T10:49:39.358Z,101826.50
2019-04-29T10:52:08.057Z,101834.64
2019-04-29T10:54:36.693Z,101831.38
2019-04-29T10:57:05.738Z,101824.17
2019-04-29T10:59:40.628Z,101830.61
2019-04-29T11:02:35.090Z,101830.05
2019-04-29T11:05:36.055Z,101823.68
2019-04-29T11:08:33.580Z,101835.31
2019-04-29T11:11:02.445Z,101830.78
2019-04-29T11:13:31.047Z,101824.81
2019-04-29T11:16:00.035Z,101824.39
2019-04-29T11:18:29.333Z,101828.12
2019-04-29T11:20:57.968Z,101823.84
2019-04-29T11:23:50.599Z,101824.81
2019-04-29T11:26:36.926Z,101817.14
2019-04-29T11:29:09.203Z,101823.45
2019-04-29T11:31:38.131Z,101828.22
2019-04-29T11:34:23.102Z,101829.97
2019-04-29T11:36:51.992Z,101828.52
2019-04-29T11:39:20.883Z,101831.38
2019-04-29T11:41:50.086Z,101832.78
2019-04-29T11:44:21.837Z,101833.44
2019-04-29T11:46:50.668Z,101825.17
2019-04-29T11:49:22.658Z,101830.88
2019-04-29T11:52:08.696Z,101827.67
2019-04-29T11:54:22.739Z,101837.77
2019-04-29T11:56:51.724Z,101828.82
2019-04-29T11:59:37.971Z,101834.31
2019-04-29T12:02:44.666Z,101838.53
2019-04-29T12:05:08.763Z,101841.36
2019-04-29T12:07:35.726Z,101840.77
2019-04-29T12:10:06.592Z,101835.02
2019-04-29T12:12:35.596Z,101834.14
2019-04-29T12:15:20.797Z,101836.41
2019-04-29T12:18:07.690Z,101836.52
2019-04-29T12:20:50.118Z,101828.09
2019-04-29T12:23:19.149Z,101831.95
2019-04-29T12:25:47.773Z,101824.47
2019-04-29T12:28:19.143Z,101825.23
2019-04-29T12:30:48.806Z,101824.31
2019-04-29T12:33:25.794Z,101833.22
2019-04-29T12:36:03.404Z,101830.06
2019-04-29T12:38:51.580Z,101825.53
2019-04-29T12:41:54.380Z,101829.16
2019-04-29T12:44:51.448Z,101828.97
2019-04-29T12:47:26.677Z,101821.20
2019-04-29T12:49:54.970Z,101822.59
2019-04-29T12:52:24.476Z,101826.34
2019-04-29T12:54:53.467Z,101827.19
2019-04-29T12:57:23.459Z,101814.38
2019-04-29T12:59:54.664Z,101825.28
2019-04-29T13:02:45.882Z,101822.66
2019-04-29T13:05:23.175Z,101825.74
2019-04-29T13:08:03.801Z,101823.70
2019-04-29T13:10:51.512Z,101825.06
2019-04-29T13:13:21.991Z,101817.88
2019-04-29T13:16:22.225Z,101818.58
2019-04-29T13:19:14.473Z,101813.03
2019-04-29T13:21:40.549Z,101811.70
2019-04-29T13:24:22.062Z,101801.41
2019-04-29T13:26:42.593Z,101807.09
2019-04-29T13:29:09.914Z,101807.56
2019-04-29T13:31:39.360Z,101803.99
2019-04-29T13:34:23.707Z,101802.20
2019-04-29T13:36:41.378Z,101800.81
2019-04-29T13:39:10.390Z,101805.14
2019-04-29T13:41:56.120Z,101789.16
2019-04-29T13:44:09.934Z,101791.93
2019-04-29T13:46:56.597Z,101797.67
2019-04-29T13:49:32.870Z,101786.33
2019-04-29T13:52:02.269Z,101788.22
2019-04-29T13:54:30.868Z,101783.91
2019-04-29T13:57:07.710Z,101781.59
2019-04-29T13:59:42.023Z,101780.88
2019-04-29T14:02:33.442Z,101782.66
2019-04-29T14:05:03.423Z,101777.66
2019-04-29T14:07:32.378Z,101785.06
2019-04-29T14:10:01.280Z,101781.88
2019-04-29T14:15:00.688Z,101785.98
2019-04-29T14:17:31.775Z,101786.45
2019-04-29T14:20:00.424Z,101781.97
2019-04-29T14:22:29.500Z,101780.74
2019-04-29T14:24:59.072Z,101779.06
2019-04-29T14:27:27.725Z,101785.22
2019-04-29T14:29:56.697Z,101782.47
2019-04-29T14:32:36.087Z,101777.41
2019-04-29T14:35:07.122Z,101779.79
2019-04-29T14:37:34.915Z,101779.37
2019-04-29T14:40:07.594Z,101781.56
2019-04-29T14:42:57.994Z,101779.83
2019-04-29T14:45:44.272Z,101786.86
2019-04-29T14:48:22.033Z,101787.55
2019-04-29T14:50:54.253Z,101786.31
2019-04-29T14:53:24.146Z,101787.48
2019-04-29T14:55:52.586Z,101791.92
2019-04-29T14:58:21.884Z,101788.50
2019-04-29T15:01:16.039Z,101786.44
2019-04-29T15:04:18.336Z,101788.55
2019-04-29T15:06:43.438Z,101790.66
2019-04-29T15:09:17.193Z,101799.63
2019-04-29T15:11:54.456Z,101789.39
2019-04-29T15:14:48.622Z,101794.45
2019-04-29T15:17:31.926Z,101797.27
2019-04-29T15:20:12.312Z,101800.84
2019-04-29T15:22:41.615Z,101801.54
2019-04-29T15:25:11.118Z,101805.25
2019-04-29T15:27:40.014Z,101798.27
2019-04-29T15:30:09.831Z,101800.63
2019-04-29T15:32:38.717Z,101800.69
2019-04-29T15:35:07.811Z,101800.69
2019-04-29T15:37:36.441Z,101802.87
2019-04-29T15:40:06.005Z,101817.98
2019-04-29T15:42:37.813Z,101805.98
2019-04-29T15:45:06.061Z,101813.91
2019-04-29T15:47:34.750Z,101810.20
2019-04-29T15:50:18.372Z,101816.08
2019-04-29T15:52:35.211Z,101814.50
2019-04-29T15:55:04.958Z,101819.78
2019-04-29T15:57:33.878Z,101819.38
2019-04-29T16:00:20.234Z,101826.88
2019-04-29T16:02:35.911Z,101825.69
2019-04-29T16:05:23.590Z,101833.13
2019-04-29T16:08:02.001Z,101830.54
2019-04-29T16:10:45.981Z,101824.08
2019-04-29T16:13:14.946Z,101832.52
2019-04-29T16:15:43.651Z,101830.30
2019-04-29T16:18:14.718Z,101835.09
2019-04-29T16:20:43.393Z,101836.55
2019-04-29T16:23:12.461Z,101835.72
2019-04-29T16:25:46.365Z,101835.13
2019-04-29T16:28:11.783Z,101839.55
2019-04-29T16:30:40.678Z,101852.86
2019-04-29T16:33:14.001Z,101838.93
2019-04-29T16:35:40.698Z,101842.14
2019-04-29T16:38:11.695Z,101843.34
2019-04-29T16:40:44.078Z,101853.61
2019-04-29T16:43:27.667Z,101849.59
2019-04-29T16:46:00.430Z,101849.84
2019-04-29T16:48:29.323Z,101844.99
2019-04-29T16:50:58.623Z,101859.45
2019-04-29T16:53:28.023Z,101846.86
2019-04-29T16:55:56.641Z,101852.09
2019-04-29T16:58:25.602Z,101852.63
2019-04-29T17:00:54.865Z,101841.02
2019-04-29T17:03:24.034Z,101851.28
2019-04-29T17:05:52.992Z,101851.19
2019-04-29T17:08:23.336Z,101845.55
2019-04-29T17:10:58.455Z,101843.01
2019-04-29T17:13:27.446Z,101847.70
2019-04-29T17:15:56.444Z,101852.39
2019-04-29T17:18:25.339Z,101857.27
2019-04-29T17:20:53.978Z,101855.70
2019-04-29T17:23:24.429Z,101855.20
2019-04-29T17:25:53.338Z,101855.28
2019-04-29T17:28:29.105Z,101854.17
2019-04-29T17:31:12.530Z,101853.25
2019-04-29T17:33:59.986Z,101852.75
2019-04-29T17:36:28.840Z,101854.14
2019-04-29T17:38:57.831Z,101855.48
2019-04-29T17:41:26.729Z,101855.80
2019-04-29T17:44:14.657Z,101851.11
2019-04-29T17:46:54.519Z,101852.41
2019-04-29T17:49:31.968Z,101858.95
2019-04-29T17:52:02.909Z,101859.41
2019-04-29T17:54:36.497Z,101857.66
2019-04-29T17:57:27.894Z,101863.30
2019-04-29T18:00:05.077Z,101857.97
2019-04-29T18:02:57.395Z,101858.32
2019-04-29T18:05:34.374Z,101865.68
2019-04-29T18:08:22.729Z,101863.08
2019-04-29T18:10:55.711Z,101871.16
2019-04-29T18:13:26.398Z,101874.57
2019-04-29T18:16:01.614Z,101868.81
2019-04-29T18:18:53.491Z,101875.00
2019-04-29T18:21:43.261Z,101872.62
2019-04-29T18:24:15.927Z,101878.98
2019-04-29T18:26:52.895Z,101887.56
2019-04-29T18:29:21.669Z,101884.91
2019-04-29T18:31:50.296Z,101886.77
2019-04-29T18:34:18.947Z,101887.86
2019-04-29T18:36:47.601Z,101888.57
2019-04-29T18:39:24.996Z,101886.11
2019-04-29T18:41:52.609Z,101894.72
2019-04-29T18:44:21.296Z,101897.09
2019-04-29T18:46:53.435Z,101897.14
2019-04-29T18:49:20.658Z,101902.83
2019-04-29T18:51:49.954Z,101897.62
2019-04-29T18:54:18.835Z,101897.89
2019-04-29T18:56:47.487Z,101902.08
2019-04-29T18:59:20.985Z,101899.59
2019-04-29T19:01:46.817Z,101902.45
2019-04-29T19:04:33.315Z,101906.45
2019-04-29T19:07:02.584Z,101908.75
2019-04-29T19:09:35.772Z,101909.89
2019-04-29T19:12:05.316Z,101910.02
2019-04-29T19:14:35.249Z,101910.55
2019-04-29T19:17:05.025Z,101918.39
2019-04-29T19:19:39.311Z,101914.39
2019-04-29T19:22:09.364Z,101922.10
2019-04-29T19:24:38.155Z,101917.22
2019-04-29T19:27:09.851Z,101916.73
2019-04-29T19:29:38.907Z,101921.30
2019-04-29T19:32:07.753Z,101926.06
2019-04-29T19:34:43.004Z,101919.81
2019-04-29T19:37:07.065Z,101921.23
2019-04-29T19:39:36.779Z,101919.38
2019-04-29T19:42:05.782Z,101919.75
2019-04-29T19:44:36.738Z,101915.27
2019-04-29T19:47:06.217Z,101919.44
2019-04-29T19:49:35.989Z,101920.82
2019-04-29T19:52:05.027Z,101920.95
2019-04-29T19:54:34.018Z,101932.53
2019-04-29T19:57:06.982Z,101931.66
2019-04-29T19:59:35.943Z,101934.80
2019-04-29T20:02:09.498Z,101933.41
2019-04-29T20:05:08.061Z,101939.58
2019-04-29T20:07:41.622Z,101938.16
2019-04-29T20:10:09.483Z,101931.20
2019-04-29T20:12:37.811Z,101937.05
2019-04-29T20:15:08.368Z,101939.91
2019-04-29T20:18:00.471Z,101941.74
2019-04-29T20:20:50.251Z,101940.52
2019-04-29T20:23:25.100Z,101938.49
2019-04-29T20:25:49.822Z,101936.99
2019-04-29T20:28:21.246Z,101932.80
2019-04-29T20:30:50.471Z,101934.59
2019-04-29T20:33:19.722Z,101939.78
2019-04-29T20:35:49.394Z,101934.62
2019-04-29T20:38:19.079Z,101939.32
2019-04-29T20:40:48.338Z,101941.81
2019-04-29T20:43:20.869Z,101945.28
2019-04-29T20:45:48.561Z,101947.12
2019-04-29T20:48:19.545Z,101932.06
2019-04-29T20:50:52.876Z,101935.95
2019-04-29T20:53:36.084Z,101951.11
2019-04-29T20:56:10.435Z,101955.03
2019-04-29T20:58:33.273Z,101956.95
2019-04-29T21:01:06.560Z,101952.50
2019-04-29T21:03:33.145Z,101947.00
2019-04-29T21:06:04.003Z,101946.83
2019-04-29T21:08:32.647Z,101954.06
2019-04-29T21:11:05.801Z,101949.16
2019-04-29T21:13:56.000Z,101947.97
2019-04-29T21:16:33.383Z,101946.05
2019-04-29T21:19:08.826Z,101950.32
2019-04-29T21:21:41.912Z,101950.32
2019-04-29T21:24:14.083Z,101957.63
2019-04-29T21:26:44.655Z,101957.63
2019-04-29T21:29:10.742Z,101954.36
2019-04-29T21:31:40.438Z,101954.36
2019-04-29T21:34:09.334Z,101953.56
2019-04-29T21:37:10.202Z,101955.44
2019-04-29T21:40:01.669Z,101958.25
2019-04-29T21:42:36.981Z,101959.54
2019-04-29T21:45:08.685Z,101968.20
2019-04-29T21:47:42.647Z,101971.30
2019-04-29T21:50:07.557Z,101971.30
2019-04-29T21:52:36.612Z,101973.81
2019-04-29T21:55:05.664Z,101978.58
2019-04-29T21:57:34.582Z,101975.46
2019-04-29T22:00:05.575Z,101975.46
2019-04-29T22:02:35.760Z,101973.91
2019-04-29T22:05:09.497Z,101984.73
2019-04-29T22:07:39.712Z,101981.19
2019-04-29T22:10:06.979Z,101991.70
2019-04-29T22:12:35.613Z,101991.70
2019-04-29T22:15:05.876Z,101982.56
2019-04-29T22:17:36.036Z,101982.90
2019-04-29T22:20:09.678Z,101976.94
2019-04-29T22:22:38.465Z,101974.06
2019-04-29T22:25:09.982Z,101965.43
2019-04-29T22:27:40.947Z,101968.97
2019-04-29T22:30:16.854Z,101971.19
2019-04-29T22:32:41.496Z,101968.73
2019-04-29T22:35:10.583Z,101973.67
2019-04-29T22:37:39.575Z,101975.20
2019-04-29T22:40:08.977Z,101973.12
2019-04-29T22:43:08.458Z,101970.77
2019-04-29T22:45:33.972Z,101976.58
2019-04-29T22:48:14.198Z,101975.49
2019-04-29T22:50:33.758Z,101971.90
2019-04-29T22:53:07.396Z,101970.53
2019-04-29T22:55:37.102Z,101975.31
2019-04-29T22:58:08.022Z,101974.85
2019-04-29T23:00:36.262Z,101973.97
2019-04-29T23:03:05.329Z,101977.50
2019-04-29T23:05:35.676Z,101972.80
2019-04-29T23:08:05.223Z,101977.42
2019-04-29T23:10:35.635Z,101973.17
2019-04-29T23:13:06.155Z,101969.38
2019-04-29T23:15:35.826Z,101972.37
2019-04-29T23:18:05.564Z,101970.22
2019-04-29T23:20:52.476Z,101961.30
2019-04-29T23:23:33.356Z,101961.97
2019-04-29T23:25:59.984Z,101957.25
2019-04-29T23:28:28.446Z,101957.59
2019-04-29T23:30:57.184Z,101954.06
2019-04-29T23:33:26.445Z,101957.06
2019-04-29T23:35:56.100Z,101950.93
2019-04-29T23:38:25.539Z,101953.22
2019-04-29T23:40:56.295Z,101953.31
2019-04-29T23:43:28.468Z,101951.54
2019-04-29T23:46:00.216Z,101959.53
2019-04-29T23:48:38.091Z,101945.53
2019-04-29T23:50:58.369Z,101950.42
2019-04-29T23:53:27.272Z,101947.80
2019-04-29T23:56:00.279Z,101951.34
2019-04-29T23:58:55.461Z,101942.73
